Data for 11/07/2016

Time Sea-Level Adjusted Pressure Absolute Pressure Temperature Relative Humidity Dew Point   
(mb) (inHg) (mb) (inHg) (C) (F) (%) (C) (F)
00:05 1022 30.18 851 25.13 5 41.1 53 -3.7 25.3
00:10 1022 30.18 851 25.13 4.9 40.9 53 -3.9 25
00:15 1022 30.18 852 25.16 5.1 41.2 52 -4 24.8
00:20 1023 30.21 852 25.16 5.2 41.4 51 -4 24.7
00:25 1023 30.21 852 25.16 5.6 42.2 49 -4.2 24.4
00:30 1023 30.21 852 25.16 5.8 42.5 49 -4 24.9
00:35 1023 30.21 852 25.16 5.8 42.4 49 -4 24.8
00:40 1023 30.21 852 25.16 5.7 42.3 50 -4 24.8
00:45 1023 30.21 852 25.16 5.6 42 50 -4 24.9
00:50 1023 30.21 852 25.16 5.5 42 51 -3.9 25
00:55 1023 30.21 852 25.16 5.4 41.7 51 -3.9 25
01:00 1023 30.21 853 25.19 5.4 41.7 51 -3.9 24.9
01:05 1023 30.21 853 25.19 5.4 41.8 51 -4 24.9
01:10 1023 30.21 853 25.19 5.7 42.3 50 -3.9 24.9
01:15 1024 30.24 853 25.19 5.9 42.6 49 -4 24.8
01:20 1024 30.24 853 25.19 6.1 43 49 -3.9 25
01:25 1024 30.24 853 25.19 6.3 43.4 49 -3.7 25.4
01:30 1024 30.24 853 25.19 6.2 43.2 49 -3.7 25.4
01:35 1023 30.21 853 25.19 6.2 43.2 49 -3.8 25.2
01:40 1023 30.21 853 25.19 6 42.8 50 -3.5 25.7
01:45 1023 30.21 853 25.19 5.7 42.3 51 -3.5 25.6
01:50 1023 30.21 853 25.19 5.7 42.3 51 -3.5 25.7
01:55 1023 30.21 853 25.19 5.8 42.5 51 -3.5 25.7
02:00 1023 30.21 853 25.19 6 42.8 53 -2.9 26.7
02:05 1023 30.21 853 25.19 5.5 41.9 54 -3.2 26.3
02:10 1023 30.21 853 25.19 5.4 41.7 53 -3.5 25.7
02:15 1023 30.21 853 25.19 5.2 41.4 55 -3.2 26.2
02:20 1024 30.24 853 25.19 4.9 40.8 55 -3.3 26.1
02:25 1024 30.24 853 25.19 4.4 40 58 -3 26.6
02:30 1024 30.24 853 25.19 4 39.1 59 -3.3 26.1
02:35 1024 30.24 853 25.19 4 39.2 58 -3.4 25.9
02:40 1024 30.24 853 25.19 3.9 39.1 59 -3.3 26.1
02:45 1024 30.24 853 25.19 3.9 39 59 -3.4 25.8
02:50 1024 30.24 853 25.19 3.9 39 59 -3.3 26
02:55 1024 30.24 853 25.19 3.6 38.5 60 -3.4 25.9
03:00 1024 30.24 853 25.19 3.5 38.3 60 -3.4 25.8
03:05 1024 30.24 853 25.19 3.4 38.2 61 -3.4 26
03:10 1024 30.24 853 25.19 3.5 38.3 59 -3.8 25.1
03:15 1024 30.24 853 25.19 4.2 39.6 57 -3.6 25.5
03:20 1024 30.24 853 25.19 4.2 39.6 57 -3.5 25.6
03:25 1024 30.24 853 25.19 4.1 39.4 57 -3.6 25.6
03:30 1024 30.24 853 25.19 4 39.2 58 -3.5 25.6
03:35 1024 30.24 853 25.19 3.7 38.7 59 -3.6 25.5
03:40 1024 30.24 854 25.22 3.7 38.6 59 -3.6 25.5
03:45 1024 30.24 854 25.22 3.6 38.5 59 -3.7 25.3
03:50 1024 30.24 854 25.22 3.7 38.7 59 -3.6 25.5
03:55 1024 30.24 854 25.22 3.7 38.6 59 -3.7 25.4
04:00 1024 30.24 854 25.22 3.6 38.5 59 -3.7 25.3
04:05 1025 30.27 854 25.22 3.7 38.6 59 -3.7 25.4
04:10 1025 30.27 854 25.22 3.7 38.6 60 -3.5 25.8
04:15 1025 30.27 854 25.22 3.3 37.9 61 -3.5 25.7
04:20 1025 30.27 854 25.22 2.9 37.2 62 -3.6 25.6
04:25 1025 30.27 854 25.22 2.5 36.6 63 -3.7 25.3
04:30 1025 30.27 854 25.22 2.5 36.5 64 -3.7 25.4
04:35 1025 30.27 854 25.22 2.4 36.3 64 -3.8 25.2
04:40 1025 30.27 854 25.22 2.8 37 62 -3.7 25.3
04:45 1025 30.27 854 25.22 2.8 37.1 62 -3.8 25.2
04:50 1025 30.27 854 25.22 2.7 36.9 63 -3.6 25.6
04:55 1025 30.27 854 25.22 2.3 36.2 65 -3.5 25.7
05:00 1025 30.27 854 25.22 2.2 36 65 -3.7 25.3
05:05 1025 30.27 854 25.22 2.3 36.2 64 -3.7 25.4
05:10 1025 30.27 855 25.25 2.1 35.8 65 -3.7 25.3
05:15 1025 30.27 855 25.25 2 35.6 66 -3.7 25.3
05:20 1025 30.27 855 25.25 2.2 35.9 66 -3.6 25.6
05:25 1025 30.27 855 25.25 1.9 35.4 67 -3.7 25.3
05:30 1026 30.3 855 25.25 1.9 35.4 66 -3.8 25.1
05:35 1026 30.3 855 25.25 1.8 35.2 67 -3.8 25.2
05:40 1026 30.3 855 25.25 1.6 35 67 -3.7 25.3
05:45 1026 30.3 855 25.25 1.3 34.3 69 -3.7 25.3
05:50 1026 30.3 855 25.25 1.1 34 70 -3.8 25.1
05:55 1026 30.3 855 25.25 1 33.7 71 -3.8 25.2
06:00 1026 30.3 855 25.25 0.7 33.3 72 -3.8 25.2
06:05 1026 30.3 855 25.25 0.7 33.3 70 -4 24.7
06:10 1026 30.3 855 25.25 1.1 33.9 70 -3.8 25.2
06:15 1026 30.3 855 25.25 1.2 34.1 70 -3.8 25.2
06:20 1026 30.3 855 25.25 1.4 34.5 68 -3.9 25
06:25 1026 30.3 855 25.25 1.7 35 68 -3.6 25.5
06:30 1026 30.3 855 25.25 1.4 34.6 69 -3.6 25.5
06:35 1026 30.3 855 25.25 1.1 33.9 71 -3.7 25.4
06:40 1026 30.3 855 25.25 0.9 33.7 71 -3.8 25.2
06:45 1026 30.3 856 25.28 0.8 33.4 71 -3.9 25.1
06:50 1026 30.3 855 25.25 0.9 33.5 71 -3.8 25.1
06:55 1026 30.3 855 25.25 0.7 33.3 71 -3.9 25
07:00 1026 30.3 855 25.25 0.6 33.1 72 -3.9 25
07:05 1026 30.3 855 25.25 0.8 33.5 71 -3.9 25
07:10 1026 30.3 855 25.25 1.1 34 70 -3.8 25.1
07:15 1026 30.3 855 25.25 1.3 34.3 69 -3.7 25.4
07:20 1026 30.3 855 25.25 1.3 34.3 69 -3.7 25.3
07:25 1026 30.3 855 25.25 1.3 34.3 70 -3.6 25.4
07:30 1026 30.3 855 25.25 1.1 34 70 -3.7 25.4
07:35 1026 30.3 855 25.25 1.1 33.9 71 -3.7 25.4
07:40 1026 30.3 855 25.25 0.9 33.6 72 -3.6 25.5
07:45 1026 30.3 855 25.25 1.2 34.2 71 -3.5 25.6
07:50 1026 30.3 855 25.25 1.2 34.1 71 -3.5 25.7
07:55 1026 30.3 855 25.25 1.1 33.9 71 -3.6 25.5
08:00 1026 30.3 855 25.25 1.4 34.4 70 -3.4 25.8
08:05 1026 30.3 855 25.25 1.4 34.6 70 -3.4 25.8
08:10 1026 30.3 855 25.25 1.5 34.8 70 -3.4 25.9
08:15 1026 30.3 855 25.25 1.7 35 69 -3.4 25.9
08:20 1026 30.3 855 25.25 1.8 35.2 69 -3.4 25.9
08:25 1026 30.3 856 25.28 1.9 35.5 68 -3.4 25.9
08:30 1026 30.3 856 25.28 2 35.6 67 -3.5 25.8
08:35 1027 30.33 856 25.28 2.3 36.1 66 -3.4 25.8
08:40 1027 30.33 856 25.28 2.5 36.6 65 -3.4 25.8
08:45 1027 30.33 856 25.28 2.7 36.9 64 -3.4 25.9
08:50 1027 30.33 856 25.28 3 37.3 62 -3.5 25.7
08:55 1027 30.33 856 25.28 3.3 37.9 61 -3.5 25.7
09:00 1027 30.33 856 25.28 3.7 38.6 60 -3.4 25.8
09:05 1027 30.33 856 25.28 3.8 38.9 59 -3.4 25.8
09:10 1027 30.33 856 25.28 3.9 39 59 -3.4 25.9
09:15 1027 30.33 856 25.28 4.1 39.4 58 -3.5 25.7
09:20 1027 30.33 857 25.31 4.5 40.1 57 -3.4 26
09:25 1027 30.33 857 25.31 4.7 40.5 56 -3.3 26
09:30 1027 30.33 857 25.31 4.8 40.7 56 -3.2 26.3
09:35 1027 30.33 857 25.31 4.5 40.1 58 -3.1 26.4
09:40 1028 30.36 857 25.31 4.6 40.3 57 -3.2 26.3
09:45 1028 30.36 857 25.31 5 41.1 55 -3.2 26.3
09:50 1028 30.36 857 25.31 5.3 41.5 55 -2.9 26.7
09:55 1028 30.36 857 25.31 5.8 42.5 52 -3.2 26.3
10:00 1028 30.36 857 25.31 6.5 43.8 51 -3 26.6
10:05 1028 30.36 857 25.31 7 44.6 50 -2.6 27.3
10:10 1028 30.36 857 25.31 7 44.6 51 -2.5 27.6
10:15 1028 30.36 857 25.31 7.2 45 50 -2.5 27.5
10:20 1028 30.36 857 25.31 6.9 44.4 51 -2.6 27.3
10:25 1028 30.36 857 25.31 7.2 45 48 -2.9 26.7
10:30 1028 30.36 857 25.31 8 46.4 46 -2.9 26.8
10:35 1028 30.36 857 25.31 8.6 47.5 45 -2.7 27.2
10:40 1028 30.36 857 25.31 8.2 46.7 46 -2.7 27.1
10:45 1028 30.36 857 25.31 8.4 47.1 46 -2.7 27.2
10:50 1028 30.36 857 25.31 8.2 46.7 48 -2.1 28.2
10:55 1028 30.36 857 25.31 8 46.4 48 -2.3 27.8
11:00 1028 30.36 857 25.31 8 46.4 51 -1.6 29.1
11:05 1028 30.36 857 25.31 7.7 45.9 52 -1.4 29.4
11:10 1028 30.36 857 25.31 7.1 44.9 53 -1.8 28.7
11:15 1028 30.36 857 25.31 7.1 44.8 54 -1.5 29.2
11:20 1028 30.36 857 25.31 7 44.7 54 -1.7 28.9
11:25 1028 30.36 857 25.31 7 44.7 53 -1.8 28.7
11:30 1028 30.36 857 25.31 7.1 44.7 53 -1.9 28.6
11:35 1028 30.36 857 25.31 7.3 45.2 52 -1.9 28.6
11:40 1028 30.36 857 25.31 7.6 45.7 50 -2 28.3
11:45 1028 30.36 857 25.31 8.1 46.6 49 -2.1 28.3
11:50 1028 30.36 857 25.31 8.5 47.3 47 -2.1 28.3
11:55 1028 30.36 857 25.31 8.7 47.7 46 -2.1 28.2
12:00 1028 30.36 857 25.31 9.2 48.6 45 -2.2 28.1
12:05 1028 30.36 857 25.31 9.5 49.2 44 -2.2 28
12:10 1028 30.36 857 25.31 10 49.9 41 -2.6 27.4
12:15 1028 30.36 857 25.31 10.4 50.7 42 -1.9 28.5
12:20 1028 30.36 857 25.31 10.3 50.5 41 -2.2 28
12:25 1028 30.36 857 25.31 10.3 50.5 42 -1.9 28.6
12:30 1028 30.36 857 25.31 10.7 51.3 38 -2.8 27
12:35 1028 30.36 857 25.31 11.3 52.4 40 -1.8 28.8
12:40 1028 30.36 857 25.31 10.5 50.9 40 -2.5 27.5
12:45 1028 30.36 857 25.31 10.2 50.4 41 -2.5 27.6
12:50 1028 30.36 857 25.31 10.5 50.9 39 -2.9 26.7
12:55 1028 30.36 857 25.31 10.8 51.5 38 -2.7 27.1
13:00 1028 30.36 857 25.31 11.4 52.6 36 -3 26.5
13:05 1028 30.36 857 25.31 12.2 54 36 -2.3 27.9
13:10 1028 30.36 857 25.31 12.5 54.4 33 -3.2 26.3
13:15 1028 30.36 857 25.31 12.3 54.2 37 -1.9 28.5
13:20 1028 30.36 857 25.31 12.3 54.2 36 -2.3 27.8
13:25 1028 30.36 857 25.31 13.2 55.8 34 -2.4 27.7
13:30 1028 30.36 857 25.31 13.7 56.7 35 -1.3 29.6
13:35 1028 30.36 857 25.31 13.2 55.8 35 -1.9 28.5
13:40 1028 30.36 857 25.31 13.6 56.5 33 -2.1 28.3
13:45 1028 30.36 857 25.31 13.9 57 33 -1.9 28.6
13:50 1028 30.36 857 25.31 14.1 57.4 33 -2 28.4
13:55 1028 30.36 857 25.31 13.4 56.1 35 -1.6 29
14:00 1028 30.36 857 25.31 13.1 55.6 35 -2 28.4
14:05 1028 30.36 857 25.31 13.9 57 32 -2.3 27.8
14:10 1028 30.36 857 25.31 14.3 57.8 32 -2.1 28.2
14:15 1028 30.36 857 25.31 14.7 58.4 31 -2 28.4
14:20 1028 30.36 857 25.31 14.5 58.1 32 -2 28.4
14:25 1028 30.36 857 25.31 14.7 58.5 31 -2.1 28.2
14:30 1028 30.36 857 25.31 14.8 58.7 30 -2.5 27.5
14:35 1028 30.36 857 25.31 14.7 58.5 31 -2.2 28
14:40 1028 30.36 857 25.31 14 57.3 32 -2.4 27.7
14:45 1028 30.36 857 25.31 13.4 56 32 -3 26.6
14:50 1028 30.36 857 25.31 13.9 57 30 -3.1 26.4
14:55 1028 30.36 857 25.31 14.2 57.5 31 -2.8 26.9
15:00 1028 30.36 857 25.31 14.3 57.8 30 -2.8 27
15:05 1028 30.36 857 25.31 14.3 57.7 31 -2.5 27.5
15:10 1028 30.36 857 25.31 13.4 56.2 33 -2.5 27.5
15:15 1028 30.36 857 25.31 13 55.4 32 -3.1 26.4
15:20 1028 30.36 857 25.31 13.3 55.9 32 -3.1 26.4
15:25 1028 30.36 857 25.31 13.5 56.4 31 -3.2 26.2
15:30 1028 30.36 857 25.31 13.9 57 31 -2.8 27
15:35 1027 30.33 857 25.31 13.4 56.1 32 -3 26.7
15:40 1027 30.33 857 25.31 13.3 55.9 32 -3.1 26.4
15:45 1027 30.33 857 25.31 13.4 56.2 31 -3.2 26.2
15:50 1027 30.33 856 25.28 13.8 56.8 31 -2.8 26.9
15:55 1027 30.33 856 25.28 14.2 57.5 31 -2.6 27.3
16:00 1027 30.33 856 25.28 14 57.1 32 -2.5 27.5
16:05 1027 30.33 856 25.28 13.6 56.5 33 -2.4 27.7
16:10 1027 30.33 856 25.28 13.3 55.9 32 -2.8 26.9
16:15 1027 30.33 856 25.28 13.3 55.9 33 -2.6 27.3
16:20 1027 30.33 856 25.28 13.4 56.1 33 -2.5 27.5
16:25 1027 30.33 856 25.28 13.3 55.9 33 -2.5 27.4
16:30 1027 30.33 856 25.28 13.5 56.3 33 -2.4 27.7
16:35 1027 30.33 856 25.28 13.7 56.7 33 -2.3 27.9
16:40 1027 30.33 856 25.28 13.9 56.9 33 -2.3 27.9
16:45 1027 30.33 856 25.28 14 57.2 32 -2.2 28
16:50 1027 30.33 856 25.28 13.8 56.8 33 -2.2 28
16:55 1027 30.33 856 25.28 13.6 56.5 34 -2 28.5
17:00 1027 30.33 856 25.28 13.4 56.1 34 -2 28.5
17:05 1027 30.33 856 25.28 13.4 56 34 -2.1 28.2
17:10 1027 30.33 856 25.28 13.3 56 34 -2.1 28.2
17:15 1027 30.33 856 25.28 13.2 55.8 35 -1.7 29
17:20 1027 30.33 856 25.28 13.2 55.8 35 -2 28.4
17:25 1027 30.33 857 25.31 13.3 56 35 -1.9 28.6
17:30 1027 30.33 857 25.31 13.2 55.8 36 -1.6 29.1
17:35 1028 30.36 857 25.31 13 55.3 36 -1.6 29
17:40 1028 30.36 857 25.31 12.8 55 37 -1.5 29.2
17:45 1028 30.36 857 25.31 12.6 54.6 38 -1.4 29.4
17:50 1028 30.36 857 25.31 12.4 54.4 38 -1.4 29.5
17:55 1028 30.36 857 25.31 12.3 54.1 39 -1.2 29.8
18:00 1028 30.36 857 25.31 12 53.5 41 -1 30.2
18:05 1028 30.36 857 25.31 11.5 52.8 42 -0.9 30.3
18:10 1028 30.36 857 25.31 11.3 52.3 42 -1 30.2
18:15 1028 30.36 858 25.34 11 51.8 43 -1 30.2
18:20 1029 30.39 858 25.34 10.9 51.7 43 -1 30.2
18:25 1029 30.39 858 25.34 10.9 51.5 44 -1 30.3
18:30 1029 30.39 858 25.34 10.7 51.3 44 -0.9 30.4
18:35 1029 30.39 858 25.34 10.6 51 45 -0.8 30.6
18:40 1029 30.39 858 25.34 10.2 50.4 47 -0.6 30.9
18:45 1029 30.39 858 25.34 9.6 49.2 48 -0.8 30.6
18:50 1029 30.39 858 25.34 9.4 48.9 48 -0.9 30.4
18:55 1029 30.39 859 25.37 9.2 48.5 49 -0.9 30.4
19:00 1029 30.39 859 25.37 9.1 48.3 50 -0.9 30.4
19:05 1029 30.39 859 25.37 8.9 48 50 -0.8 30.5
19:10 1029 30.39 859 25.37 8.6 47.5 52 -0.5 31
19:15 1029 30.39 859 25.37 8 46.4 54 -0.7 30.7
19:20 1029 30.39 859 25.37 7.8 46.1 53 -1.1 30
19:25 1029 30.39 859 25.37 7.8 46 54 -1 30.3
19:30 1029 30.39 859 25.37 7.5 45.6 55 -1 30.2
19:35 1029 30.39 859 25.37 7.4 45.3 54 -1.2 29.9
19:40 1029 30.39 859 25.37 7.4 45.2 54 -1.2 29.8
19:45 1029 30.39 859 25.37 7.1 44.8 55 -1.3 29.7
19:50 1030 30.42 859 25.37 6.8 44.2 57 -1.2 29.8
19:55 1029 30.39 859 25.37 6.5 43.6 57 -1.5 29.4
20:00 1029 30.39 859 25.37 6.6 43.9 55 -1.7 28.9
20:05 1030 30.42 859 25.37 6.9 44.5 54 -1.7 28.9
20:10 1030 30.42 859 25.37 7.1 44.8 53 -1.7 29
20:15 1030 30.42 859 25.37 7.1 44.7 54 -1.6 29.1
20:20 1030 30.42 859 25.37 7 44.6 54 -1.7 29
20:25 1030 30.42 859 25.37 7 44.5 54 -1.7 28.9
20:30 1030 30.42 859 25.37 6.9 44.5 53 -1.9 28.6
20:35 1030 30.42 859 25.37 7 44.6 53 -1.9 28.5
20:40 1030 30.42 859 25.37 7.1 44.8 52 -2 28.4
20:45 1030 30.42 859 25.37 7 44.6 53 -1.8 28.7
20:50 1030 30.42 859 25.37 6.6 43.9 55 -1.8 28.8
20:55 1030 30.42 859 25.37 6.4 43.6 55 -2 28.3
21:00 1030 30.42 859 25.37 6.5 43.7 54 -2.2 28
21:05 1030 30.42 859 25.37 6.9 44.4 51 -2.5 27.5
21:10 1030 30.42 859 25.37 7.4 45.3 49 -2.5 27.4
21:15 1030 30.42 859 25.37 7.6 45.8 49 -2.3 27.8
21:20 1030 30.42 859 25.37 7.5 45.5 49 -2.3 27.8
21:25 1030 30.42 859 25.37 7.4 45.2 50 -2.5 27.6
21:30 1030 30.42 859 25.37 7.4 45.4 49 -2.7 27.2
21:35 1030 30.42 859 25.37 7.4 45.3 50 -2.3 27.8
21:40 1030 30.42 859 25.37 6.9 44.5 52 -2.2 28
21:45 1030 30.42 859 25.37 6.4 43.5 54 -2.3 27.9
21:50 1030 30.42 859 25.37 6 42.9 55 -2.3 27.9
21:55 1030 30.42 859 25.37 6 42.8 54 -2.5 27.4
22:00 1030 30.42 859 25.37 6.3 43.3 53 -2.5 27.5
22:05 1030 30.42 859 25.37 6.5 43.7 52 -2.7 27.1
22:10 1030 30.42 859 25.37 7 44.5 50 -2.7 27.2
22:15 1030 30.42 859 25.37 7 44.6 50 -2.6 27.4
22:20 1030 30.42 859 25.37 7 44.6 51 -2.5 27.5
22:25 1030 30.42 859 25.37 6.9 44.4 51 -2.6 27.3
22:30 1030 30.42 859 25.37 6.9 44.4 51 -2.4 27.7
22:35 1030 30.42 859 25.37 6.7 44 52 -2.4 27.7
22:40 1030 30.42 859 25.37 6.4 43.5 54 -2.2 28
22:45 1030 30.42 859 25.37 5.9 42.6 56 -2.3 27.9
22:50 1030 30.42 859 25.37 5.7 42.3 57 -2.3 27.9
22:55 1030 30.42 859 25.37 5.7 42.3 57 -2.2 28.1
23:00 1030 30.42 859 25.37 5.9 42.6 55 -2.4 27.7
23:05 1030 30.42 859 25.37 6.1 42.9 54 -2.4 27.7
23:10 1030 30.42 859 25.37 6.3 43.3 53 -2.6 27.4
23:15 1030 30.42 859 25.37 6.3 43.4 53 -2.5 27.5
23:20 1030 30.42 859 25.37 6 42.9 54 -2.5 27.5
23:25 1030 30.42 859 25.37 6 42.8 55 -2.4 27.7
23:30 1030 30.42 859 25.37 5.8 42.5 56 -2.4 27.7
23:35 1029 30.39 859 25.37 5.7 42.2 54 -2.8 27
23:40 1029 30.39 859 25.37 6.1 42.9 54 -2.5 27.5
23:45 1029 30.39 859 25.37 5.6 42.1 57 -2.1 28.1
23:50 1029 30.39 859 25.37 5.4 41.7 57 -2.5 27.5
23:55 1030 30.42 859 25.37 5.7 42.2 55 -2.6 27.4
24:00 1030 30.42 859 25.37 5.8 42.4 54 -2.7 27.1